Albertville, Canada
Current Conditions -  °F | °C
As of 6:00 PM on Tuesday 21 Oct 2014 (Local Time) from CYPA Reporting Station
Overcast Overcast  
Wind Chill: 57°   Ceiling: 25000
Heat Index: 57°   Visibility: 15mi
Dew Point: 43°   Wind: 2mph
Humidity: 59%   Direction: NA
Pressure: 29.53"   Gusts: NA
Location:  53.42°N, 105.53°W
Report Text: CYPA 220000Z VRB02KT 15SM SCT140 OVC250 14/06 A2953 RMK AC3CI5 SLP013 DENSITY ALT 2000FT
Loading
Personal Weather Stations






























Interactive Weather Map
Tropical Storm Tracking
New forecast layout! Learn more

10-Day Weather Forecast

Advertisements
Track Severe Weather on mobile